createdAt,value
2022-12-05T00:00:35.135Z,3.00
2022-12-05T00:03:07.642Z,2.33
2022-12-05T00:05:42.191Z,2.53
2022-12-05T00:08:11.269Z,2.13
2022-12-05T00:10:40.558Z,1.92
2022-12-05T00:13:10.026Z,3.00
2022-12-05T00:15:40.689Z,1.88
2022-12-05T00:18:10.716Z,1.95
2022-12-05T00:20:50.225Z,2.00
2022-12-05T00:23:19.303Z,2.03
2022-12-05T00:25:47.745Z,2.40
2022-12-05T00:28:17.526Z,2.58
2022-12-05T00:30:45.979Z,2.20
2022-12-05T00:33:15.106Z,3.20
2022-12-05T00:35:44.276Z,2.22
2022-12-05T00:38:14.107Z,2.20
2022-12-05T00:40:43.496Z,2.00
2022-12-05T00:43:12.758Z,2.22
2022-12-05T00:45:42.528Z,2.10
2022-12-05T00:48:11.782Z,2.83
2022-12-05T00:50:41.936Z,3.22
2022-12-05T00:53:10.961Z,2.60
2022-12-05T00:55:40.260Z,2.38
2022-12-05T00:58:09.815Z,2.35
2022-12-05T01:00:39.091Z,3.17
2022-12-05T01:03:10.493Z,2.38
2022-12-05T01:05:43.899Z,2.92
2022-12-05T01:08:15.756Z,2.72
2022-12-05T01:11:10.888Z,2.60
2022-12-05T01:13:49.828Z,2.53
2022-12-05T01:16:32.381Z,2.03
2022-12-05T01:19:09.160Z,2.15
2022-12-05T01:21:40.691Z,2.67
2022-12-05T01:24:16.564Z,3.00
2022-12-05T01:29:23.054Z,2.03
2022-12-05T01:31:59.196Z,2.40
2022-12-05T01:34:34.190Z,2.17
2022-12-05T01:37:08.288Z,2.20
2022-12-05T01:42:17.439Z,2.10
2022-12-05T01:44:49.864Z,2.40
2022-12-05T01:47:40.412Z,2.20
2022-12-05T01:50:15.640Z,2.63
2022-12-05T01:52:51.122Z,2.38
2022-12-05T01:55:22.935Z,2.50
2022-12-05T01:57:54.030Z,3.25
2022-12-05T02:00:30.021Z,2.40
2022-12-05T02:03:07.665Z,2.45
2022-12-05T02:05:41.647Z,2.30
2022-12-05T02:08:16.324Z,2.30
2022-12-05T02:10:52.158Z,3.05
2022-12-05T02:13:42.417Z,2.53
2022-12-05T02:16:32.194Z,2.88
2022-12-05T02:19:36.474Z,3.35
2022-12-05T02:22:38.017Z,2.60
2022-12-05T02:25:36.029Z,3.13
2022-12-05T02:28:45.097Z,4.03
2022-12-05T02:31:22.842Z,3.17
2022-12-05T02:34:08.014Z,2.95
2022-12-05T02:36:55.116Z,3.33
2022-12-05T02:39:50.647Z,2.72
2022-12-05T02:42:36.004Z,4.38
2022-12-05T02:45:12.155Z,3.15
2022-12-05T02:47:59.486Z,2.75
2022-12-05T02:50:36.131Z,2.92
2022-12-05T02:53:12.789Z,3.50
2022-12-05T02:55:46.802Z,2.42
2022-12-05T02:58:24.824Z,3.30
2022-12-05T03:01:09.138Z,3.65
2022-12-05T03:03:42.473Z,2.63
2022-12-05T03:06:21.041Z,2.60
2022-12-05T03:09:02.674Z,2.47
2022-12-05T03:11:48.379Z,2.90
2022-12-05T03:14:28.813Z,3.35
2022-12-05T03:17:12.496Z,3.00
2022-12-05T03:19:47.432Z,2.72
2022-12-05T03:22:24.074Z,3.03
2022-12-05T03:25:04.209Z,2.80
2022-12-05T03:28:20.436Z,3.28
2022-12-05T03:30:59.587Z,2.58
2022-12-05T03:33:41.921Z,2.50
2022-12-05T03:36:23.881Z,3.78
2022-12-05T03:39:11.429Z,2.83
2022-12-05T03:42:12.261Z,2.97
2022-12-05T03:44:59.248Z,2.53
2022-12-05T03:47:53.958Z,3.30
2022-12-05T03:50:32.657Z,2.80
2022-12-05T03:53:21.181Z,2.72
2022-12-05T03:56:05.171Z,3.10
2022-12-05T03:59:10.918Z,3.40
2022-12-05T04:01:47.096Z,2.85
2022-12-05T04:04:31.610Z,3.38
2022-12-05T04:07:08.112Z,2.42
2022-12-05T04:09:48.203Z,4.18
2022-12-05T04:12:40.320Z,2.88
2022-12-05T04:15:16.089Z,3.20
2022-12-05T04:18:02.528Z,4.43
2022-12-05T04:21:02.699Z,2.60
2022-12-05T04:23:33.864Z,5.22
2022-12-05T04:26:32.186Z,3.00
2022-12-05T04:29:14.262Z,4.07
2022-12-05T04:31:51.839Z,3.35
2022-12-05T04:34:27.570Z,3.67
2022-12-05T04:37:06.743Z,3.20
2022-12-05T04:39:51.744Z,3.38
2022-12-05T04:42:43.958Z,3.38
2022-12-05T04:45:20.102Z,4.32
2022-12-05T04:48:08.866Z,4.80
2022-12-05T04:50:47.476Z,4.15
2022-12-05T04:53:24.193Z,3.80
2022-12-05T04:56:11.972Z,3.97
2022-12-05T04:58:45.749Z,4.25
2022-12-05T05:01:36.517Z,2.97
2022-12-05T05:04:39.789Z,3.72
2022-12-05T05:07:16.601Z,3.28
2022-12-05T05:09:51.486Z,3.28
2022-12-05T05:12:23.777Z,3.63
2022-12-05T05:15:00.358Z,3.60
2022-12-05T05:17:32.204Z,4.73
2022-12-05T05:20:21.895Z,3.30
2022-12-05T05:23:03.398Z,3.13
2022-12-05T05:25:35.155Z,3.22
2022-12-05T05:28:20.887Z,2.97
2022-12-05T05:30:53.578Z,3.47
2022-12-05T05:33:45.891Z,3.30
2022-12-05T05:36:21.538Z,2.80
2022-12-05T05:38:59.390Z,3.13
2022-12-05T05:41:36.845Z,2.80
2022-12-05T05:44:12.442Z,2.80
2022-12-05T05:46:47.089Z,3.22
2022-12-05T05:49:16.824Z,3.25
2022-12-05T05:51:53.110Z,3.00
2022-12-05T05:54:23.707Z,3.58
2022-12-05T05:57:06.417Z,3.35
2022-12-05T05:59:38.725Z,3.10
2022-12-05T06:02:10.892Z,3.88
2022-12-05T06:04:43.061Z,3.33
2022-12-05T06:07:12.979Z,3.47
2022-12-05T06:09:45.146Z,3.63
2022-12-05T06:12:16.818Z,3.05
2022-12-05T06:14:51.353Z,3.55
2022-12-05T06:17:22.795Z,3.35
2022-12-05T06:20:11.350Z,3.22
2022-12-05T06:22:43.681Z,4.32
2022-12-05T06:25:14.657Z,3.50
2022-12-05T06:27:46.586Z,3.67
2022-12-05T06:30:22.417Z,3.30
2022-12-05T06:32:54.673Z,3.40
2022-12-05T06:35:32.081Z,4.05
2022-12-05T06:38:06.340Z,3.30
2022-12-05T06:40:44.286Z,2.90
2022-12-05T06:43:16.540Z,4.82
2022-12-05T06:45:48.340Z,2.78
2022-12-05T06:48:20.448Z,4.05
2022-12-05T06:50:55.880Z,3.88
2022-12-05T06:53:35.111Z,3.75
2022-12-05T06:56:17.709Z,4.22
2022-12-05T06:58:55.241Z,3.13
2022-12-05T07:01:42.616Z,2.97
2022-12-05T07:04:28.579Z,4.72
2022-12-05T07:07:06.331Z,3.20
2022-12-05T07:09:48.343Z,3.75
2022-12-05T07:12:28.948Z,3.72
2022-12-05T07:15:10.247Z,3.37
2022-12-05T07:17:43.184Z,3.50
2022-12-05T07:22:50.629Z,3.45
2022-12-05T07:25:24.060Z,3.65
2022-12-05T07:28:04.279Z,2.90
2022-12-05T07:30:36.609Z,2.78
2022-12-05T07:33:08.592Z,3.53
2022-12-05T07:35:40.040Z,3.83
2022-12-05T07:38:10.609Z,3.85
2022-12-05T07:40:42.097Z,4.25
2022-12-05T07:43:11.780Z,2.67
2022-12-05T07:45:42.684Z,3.22
2022-12-05T07:48:17.060Z,3.03
2022-12-05T07:50:50.147Z,4.65
2022-12-05T07:53:20.378Z,3.25
2022-12-05T07:55:51.231Z,3.47
2022-12-05T07:58:23.010Z,2.80
2022-12-05T08:00:55.031Z,2.85
2022-12-05T08:03:33.430Z,2.92
2022-12-05T08:06:06.441Z,3.63
2022-12-05T08:08:40.784Z,2.40
2022-12-05T08:11:16.588Z,3.95
2022-12-05T08:13:48.522Z,3.83
2022-12-05T08:16:23.567Z,4.10
2022-12-05T08:19:16.713Z,3.10
2022-12-05T08:21:48.428Z,3.30
2022-12-05T08:24:22.672Z,3.55
2022-12-05T08:27:01.977Z,3.72
2022-12-05T08:29:38.508Z,3.67
2022-12-05T08:32:10.690Z,5.25
2022-12-05T08:34:40.777Z,3.90
2022-12-05T08:37:14.176Z,4.25
2022-12-05T08:39:44.418Z,4.25
2022-12-05T08:42:16.048Z,4.35
2022-12-05T08:44:46.126Z,4.18
2022-12-05T08:47:16.493Z,5.07
2022-12-05T08:49:47.148Z,3.08
2022-12-05T08:52:18.905Z,3.47
2022-12-05T08:54:48.928Z,4.30
2022-12-05T08:57:30.769Z,4.38
2022-12-05T09:00:02.297Z,4.30
2022-12-05T09:02:36.911Z,4.95
2022-12-05T09:05:26.985Z,3.85
2022-12-05T09:08:04.118Z,3.65
2022-12-05T09:10:36.136Z,4.13
2022-12-05T09:13:12.009Z,4.10
2022-12-05T09:15:48.167Z,4.22
2022-12-05T09:18:20.303Z,3.42
2022-12-05T09:20:52.424Z,4.63
2022-12-05T09:23:24.031Z,4.50
2022-12-05T09:26:03.931Z,3.08
2022-12-05T09:28:43.227Z,4.50
2022-12-05T09:31:20.916Z,3.22
2022-12-05T09:33:53.332Z,3.95
2022-12-05T09:36:34.681Z,4.50
2022-12-05T09:39:11.818Z,3.75
2022-12-05T09:42:15.986Z,3.58
2022-12-05T09:45:24.173Z,3.88
2022-12-05T09:48:32.435Z,4.22
2022-12-05T09:51:04.797Z,3.70
2022-12-05T09:53:39.901Z,4.07
2022-12-05T09:56:14.193Z,3.80
2022-12-05T09:58:48.568Z,4.60
2022-12-05T10:04:32.148Z,3.72
2022-12-05T10:07:16.591Z,4.78
2022-12-05T10:10:00.898Z,4.38
2022-12-05T10:12:59.253Z,3.35
2022-12-05T10:15:45.784Z,3.55
2022-12-05T10:18:42.503Z,3.72
2022-12-05T10:21:30.973Z,3.92
2022-12-05T10:24:15.797Z,3.67
2022-12-05T10:27:13.821Z,4.13
2022-12-05T10:30:02.364Z,4.22
2022-12-05T10:33:03.702Z,3.20
2022-12-05T10:35:40.583Z,4.00
2022-12-05T10:38:15.183Z,3.72
2022-12-05T10:40:51.616Z,4.68
2022-12-05T10:43:34.734Z,3.47
2022-12-05T10:46:08.941Z,4.10
2022-12-05T10:48:43.769Z,3.90
2022-12-05T10:51:37.264Z,3.42
2022-12-05T10:54:30.907Z,3.67
2022-12-05T10:57:03.754Z,3.30
2022-12-05T10:59:48.466Z,3.80
2022-12-05T11:02:33.361Z,3.38
2022-12-05T11:05:05.306Z,3.15
2022-12-05T11:07:50.122Z,3.80
2022-12-05T11:10:34.533Z,3.80
2022-12-05T11:13:27.172Z,5.03
2022-12-05T11:16:02.496Z,3.15
2022-12-05T11:18:36.068Z,4.93
2022-12-05T11:21:19.552Z,2.80
2022-12-05T11:23:52.005Z,3.38
2022-12-05T11:26:43.909Z,3.20
2022-12-05T11:29:36.644Z,3.45
2022-12-05T11:32:32.652Z,4.55
2022-12-05T11:35:18.658Z,3.13
2022-12-05T11:38:02.022Z,3.42
2022-12-05T11:40:50.272Z,4.15
2022-12-05T11:43:28.307Z,3.65
2022-12-05T11:46:03.152Z,3.05
2022-12-05T11:48:39.819Z,4.13
2022-12-05T11:51:16.641Z,3.63
2022-12-05T11:54:41.620Z,2.88
2022-12-05T11:57:33.904Z,4.03
2022-12-05T12:00:24.994Z,4.07
2022-12-05T12:03:58.708Z,2.92
2022-12-05T12:06:35.989Z,3.80
2022-12-05T12:09:30.203Z,5.95
2022-12-05T12:12:25.511Z,3.60
2022-12-05T12:15:02.640Z,3.88
2022-12-05T12:17:58.868Z,3.17
2022-12-05T12:20:58.558Z,3.55
2022-12-05T12:23:48.175Z,4.25
2022-12-05T12:26:47.200Z,3.45
2022-12-05T12:29:33.668Z,3.63
2022-12-05T12:32:21.653Z,4.30
2022-12-05T12:35:08.049Z,3.33
2022-12-05T12:37:59.319Z,4.45
2022-12-05T12:41:04.046Z,4.05
2022-12-05T12:43:53.601Z,3.60
2022-12-05T12:46:48.965Z,4.45
2022-12-05T12:49:46.550Z,4.07
2022-12-05T12:52:24.892Z,4.00
2022-12-05T12:55:09.212Z,3.28
2022-12-05T12:58:30.890Z,4.25
2022-12-05T13:01:22.613Z,4.65
2022-12-05T13:04:03.804Z,4.88
2022-12-05T13:07:04.655Z,5.50
2022-12-05T13:09:51.878Z,5.22
2022-12-05T13:12:38.679Z,4.68
2022-12-05T13:17:47.843Z,5.45
2022-12-05T13:20:24.223Z,3.05
2022-12-05T13:23:08.019Z,3.92
2022-12-05T13:25:40.374Z,3.90
2022-12-05T13:28:31.520Z,3.72
2022-12-05T13:31:07.233Z,4.05
2022-12-05T13:33:50.109Z,3.40
2022-12-05T13:36:43.249Z,3.83
2022-12-05T13:39:34.324Z,4.63
2022-12-05T13:42:18.507Z,4.32
2022-12-05T13:44:54.608Z,3.83
2022-12-05T13:47:42.236Z,3.70
2022-12-05T13:50:16.140Z,3.90
2022-12-05T13:52:51.788Z,3.78
2022-12-05T13:55:35.237Z,3.72
2022-12-05T13:58:28.081Z,4.32
2022-12-05T14:01:40.793Z,4.32
2022-12-05T14:04:52.583Z,3.85
2022-12-05T14:08:04.145Z,5.45
2022-12-05T14:10:36.746Z,3.35
2022-12-05T14:13:19.873Z,3.70
2022-12-05T14:15:51.884Z,4.07
2022-12-05T14:18:50.559Z,4.07
2022-12-05T14:22:03.149Z,5.80
2022-12-05T14:25:06.929Z,3.88
2022-12-05T14:28:03.236Z,4.68
2022-12-05T14:31:03.898Z,4.15
2022-12-05T14:33:34.874Z,3.55
2022-12-05T14:36:16.785Z,3.40
2022-12-05T14:38:48.931Z,3.58
2022-12-05T14:41:35.554Z,3.17
2022-12-05T14:44:20.166Z,3.75
2022-12-05T14:46:59.425Z,3.30
2022-12-05T14:50:23.072Z,2.80
2022-12-05T14:53:24.416Z,3.33
2022-12-05T14:56:41.305Z,4.18
2022-12-05T14:59:35.081Z,3.88
2022-12-05T15:02:12.198Z,4.18
2022-12-05T15:05:16.889Z,3.50
2022-12-05T15:07:52.563Z,3.55
2022-12-05T15:10:39.660Z,4.40
2022-12-05T15:13:24.732Z,4.07
2022-12-05T15:16:35.777Z,4.22
2022-12-05T15:19:29.182Z,4.55
2022-12-05T15:22:11.247Z,3.00
2022-12-05T15:24:48.761Z,3.40
2022-12-05T15:27:32.491Z,4.80
2022-12-05T15:30:19.080Z,4.70
2022-12-05T15:32:52.759Z,3.63
2022-12-05T15:35:36.915Z,3.10
2022-12-05T15:38:30.660Z,4.28
2022-12-05T15:41:03.225Z,3.35
2022-12-05T15:43:39.140Z,3.97
2022-12-05T15:46:11.591Z,3.33
2022-12-05T15:48:47.291Z,3.25
2022-12-05T15:51:16.766Z,3.30
2022-12-05T15:54:00.839Z,3.40
2022-12-05T15:56:46.940Z,4.28
2022-12-05T16:02:12.686Z,2.53
2022-12-05T16:04:57.358Z,4.13
2022-12-05T16:07:33.140Z,3.17
2022-12-05T16:10:03.856Z,2.85
2022-12-05T16:12:43.608Z,3.10
2022-12-05T16:15:32.800Z,3.70
2022-12-05T16:18:08.391Z,3.08
2022-12-05T16:20:39.738Z,3.03
2022-12-05T16:23:28.922Z,3.45
2022-12-05T16:26:23.624Z,3.30
2022-12-05T16:29:08.997Z,3.95
2022-12-05T16:31:44.816Z,3.20
2022-12-05T16:34:18.701Z,3.30
2022-12-05T16:36:59.236Z,4.82
2022-12-05T16:39:34.558Z,3.28
2022-12-05T16:42:21.800Z,3.15
2022-12-05T16:45:04.530Z,2.97
2022-12-05T16:48:11.164Z,3.78
2022-12-05T16:50:48.375Z,3.00
2022-12-05T16:53:24.706Z,2.88
2022-12-05T16:56:02.287Z,3.92
2022-12-05T16:58:40.366Z,2.85
2022-12-05T17:01:20.411Z,3.22
2022-12-05T17:04:09.316Z,4.67
2022-12-05T17:06:45.312Z,3.37
2022-12-05T17:09:20.066Z,2.70
2022-12-05T17:14:32.659Z,3.65
2022-12-05T17:17:14.431Z,2.88
2022-12-05T17:19:49.578Z,2.83
2022-12-05T17:22:20.490Z,2.83
2022-12-05T17:24:51.883Z,3.20
2022-12-05T17:27:28.854Z,3.72
2022-12-05T17:30:07.803Z,3.30
2022-12-05T17:32:43.113Z,3.08
2022-12-05T17:35:24.331Z,3.17
2022-12-05T17:38:08.980Z,2.95
2022-12-05T17:40:42.704Z,2.67
2022-12-05T17:43:26.091Z,3.45
2022-12-05T17:46:09.213Z,2.50
2022-12-05T17:48:43.850Z,2.60
2022-12-05T17:51:18.658Z,3.28
2022-12-05T17:53:59.375Z,3.45
2022-12-05T17:56:38.990Z,2.60
2022-12-05T17:59:10.807Z,2.97
2022-12-05T18:01:50.445Z,3.05
2022-12-05T18:04:31.207Z,3.25
2022-12-05T18:07:25.288Z,2.50
2022-12-05T18:10:18.831Z,3.28
2022-12-05T18:13:16.192Z,2.65
2022-12-05T18:15:52.890Z,3.90
2022-12-05T18:18:31.898Z,2.88
2022-12-05T18:21:35.599Z,3.53
2022-12-05T18:24:07.113Z,3.00
2022-12-05T18:26:47.498Z,2.92
2022-12-05T18:29:17.302Z,2.65
2022-12-05T18:31:51.316Z,2.72
2022-12-05T18:34:22.405Z,2.95
2022-12-05T18:36:59.407Z,3.10
2022-12-05T18:39:32.912Z,3.33
2022-12-05T18:42:16.453Z,2.90
2022-12-05T18:44:50.723Z,3.40
2022-12-05T18:47:25.117Z,3.00
2022-12-05T18:50:19.001Z,2.58
2022-12-05T18:52:53.189Z,3.83
2022-12-05T18:56:04.764Z,2.90
2022-12-05T18:58:35.829Z,2.63
2022-12-05T19:01:09.399Z,3.80
2022-12-05T19:03:44.301Z,2.90
2022-12-05T19:06:31.579Z,2.80
2022-12-05T19:09:44.688Z,4.25
2022-12-05T19:12:24.686Z,2.53
2022-12-05T19:15:12.124Z,2.75
2022-12-05T19:17:44.574Z,3.25
2022-12-05T19:20:18.859Z,2.60
2022-12-05T19:23:02.606Z,3.30
2022-12-05T19:25:43.857Z,2.40
2022-12-05T19:28:17.285Z,2.83
2022-12-05T19:30:48.998Z,3.10
2022-12-05T19:33:47.184Z,2.40
2022-12-05T19:36:32.885Z,2.33
2022-12-05T19:39:36.625Z,2.22
2022-12-05T19:42:11.180Z,2.60
2022-12-05T19:44:44.137Z,2.90
2022-12-05T19:47:16.722Z,2.28
2022-12-05T19:49:49.298Z,3.63
2022-12-05T19:52:33.690Z,2.38
2022-12-05T19:55:06.339Z,2.22
2022-12-05T19:57:40.730Z,2.40
2022-12-05T20:00:20.597Z,2.60
2022-12-05T20:02:52.506Z,2.05
2022-12-05T20:05:39.173Z,2.30
2022-12-05T20:08:16.955Z,2.13
2022-12-05T20:10:54.870Z,2.70
2022-12-05T20:13:50.208Z,2.10
2022-12-05T20:16:35.796Z,2.90
2022-12-05T20:19:14.841Z,2.53
2022-12-05T20:21:47.617Z,2.20
2022-12-05T20:24:20.528Z,2.20
2022-12-05T20:27:02.234Z,2.05
2022-12-05T20:29:35.252Z,2.22
2022-12-05T20:32:11.530Z,1.98
2022-12-05T20:34:47.385Z,2.13
2022-12-05T20:37:18.170Z,1.98
2022-12-05T20:40:04.731Z,3.08
2022-12-05T20:42:43.495Z,2.00
2022-12-05T20:45:18.464Z,1.55
2022-12-05T20:48:07.577Z,1.98
2022-12-05T20:50:49.633Z,2.92
2022-12-05T20:53:33.359Z,1.77
2022-12-05T20:56:11.390Z,1.92
2022-12-05T20:58:52.972Z,1.90
2022-12-05T21:01:39.040Z,1.75
2022-12-05T21:04:13.493Z,2.03
2022-12-05T21:06:52.773Z,2.00
2022-12-05T21:09:34.566Z,2.35
2022-12-05T21:12:09.340Z,1.92
2022-12-05T21:14:46.181Z,2.30
2022-12-05T21:17:20.608Z,2.83
2022-12-05T21:19:57.422Z,2.30
2022-12-05T21:22:36.566Z,1.73
2022-12-05T21:25:15.603Z,2.45
2022-12-05T21:27:47.362Z,1.77
2022-12-05T21:30:20.520Z,1.77
2022-12-05T21:33:07.271Z,2.53
2022-12-05T21:35:37.749Z,2.00
2022-12-05T21:38:10.906Z,1.80
2022-12-05T21:40:46.546Z,1.88
2022-12-05T21:43:18.672Z,1.70
2022-12-05T21:48:40.761Z,1.40
2022-12-05T21:51:15.264Z,1.57
2022-12-05T21:53:50.700Z,1.85
2022-12-05T21:56:24.710Z,1.80
2022-12-05T21:59:04.901Z,1.88
2022-12-05T22:01:38.850Z,2.40
2022-12-05T22:04:11.232Z,2.80
2022-12-05T22:06:48.603Z,2.40
2022-12-05T22:09:21.341Z,2.38
2022-12-05T22:11:52.949Z,2.50
2022-12-05T22:14:27.759Z,2.25
2022-12-05T22:17:05.696Z,2.70
2022-12-05T22:19:39.344Z,2.05
2022-12-05T22:22:15.163Z,1.83
2022-12-05T22:24:47.962Z,2.22
2022-12-05T22:27:33.262Z,2.17
2022-12-05T22:30:11.426Z,1.83
2022-12-05T22:32:47.882Z,2.00
2022-12-05T22:35:40.360Z,1.88
2022-12-05T22:38:15.882Z,1.80
2022-12-05T22:40:48.373Z,2.00
2022-12-05T22:43:24.272Z,2.10
2022-12-05T22:46:20.812Z,2.10
2022-12-05T22:49:06.874Z,1.85
2022-12-05T22:51:44.263Z,1.90
2022-12-05T22:54:16.140Z,2.25
2022-12-05T22:56:49.269Z,2.30
2022-12-05T22:59:20.950Z,2.15
2022-12-05T23:02:01.001Z,2.47
2022-12-05T23:04:36.114Z,2.78
2022-12-05T23:07:15.183Z,3.22
2022-12-05T23:09:47.746Z,1.90
2022-12-05T23:12:19.422Z,1.73
2022-12-05T23:14:50.700Z,1.58
2022-12-05T23:17:41.313Z,1.90
2022-12-05T23:20:19.250Z,2.08
2022-12-05T23:22:55.314Z,2.13
2022-12-05T23:25:32.739Z,2.17
2022-12-05T23:28:08.467Z,3.60
2022-12-05T23:30:45.093Z,2.97
2022-12-05T23:33:19.368Z,3.95
2022-12-05T23:36:02.339Z,3.53
2022-12-05T23:38:39.685Z,5.20
2022-12-05T23:41:16.862Z,3.65
2022-12-05T23:43:50.385Z,3.35
2022-12-05T23:46:25.156Z,3.05
2022-12-05T23:49:03.159Z,2.45
2022-12-05T23:51:36.669Z,2.65
2022-12-05T23:54:19.257Z,2.20
2022-12-05T23:56:51.115Z,2.85
2022-12-05T23:59:26.561Z,2.58
